createdAt,value
2023-09-06T00:01:50.614Z,2.30
2023-09-06T00:03:53.675Z,2.20
2023-09-06T00:05:53.862Z,2.20
2023-09-06T00:07:25.716Z,2.30
2023-09-06T00:08:55.622Z,2.40
2023-09-06T00:10:26.564Z,2.60
2023-09-06T00:15:14.387Z,2.30
2023-09-06T00:16:45.211Z,2.50
2023-09-06T00:19:08.132Z,2.30
2023-09-06T00:21:08.812Z,2.40
2023-09-06T00:22:38.683Z,2.30
2023-09-06T00:24:09.834Z,2.20
2023-09-06T00:26:17.956Z,2.50
2023-09-06T00:29:46.364Z,2.20
2023-09-06T00:32:20.843Z,2.50
2023-09-06T00:33:47.808Z,2.40
2023-09-06T00:35:36.433Z,2.60
2023-09-06T00:37:05.397Z,2.60
2023-09-06T00:38:35.415Z,2.60
2023-09-06T00:40:06.513Z,2.40
2023-09-06T00:42:58.428Z,2.50
2023-09-06T00:46:03.893Z,2.20
2023-09-06T00:48:21.086Z,2.50
2023-09-06T00:51:11.018Z,2.30
2023-09-06T00:52:43.475Z,2.50
2023-09-06T00:54:12.920Z,2.30
2023-09-06T00:56:01.279Z,2.30
2023-09-06T01:00:56.268Z,2.30
2023-09-06T01:03:30.233Z,2.30
2023-09-06T01:05:32.993Z,2.50
2023-09-06T01:06:32.741Z,2.60
2023-09-06T01:07:33.948Z,2.80
2023-09-06T01:08:32.731Z,2.40
2023-09-06T01:11:01.799Z,2.70
2023-09-06T01:13:21.254Z,2.30
2023-09-06T01:14:50.149Z,2.70
2023-09-06T01:18:00.679Z,2.60
2023-09-06T01:19:29.812Z,1.90
2023-09-06T01:23:25.947Z,2.30
2023-09-06T01:25:57.504Z,2.30
2023-09-06T01:27:29.255Z,3.00
2023-09-06T01:34:40.628Z,2.40
2023-09-06T01:36:39.488Z,3.00
2023-09-06T01:40:03.806Z,3.20
2023-09-06T01:42:34.261Z,3.00
2023-09-06T01:44:56.668Z,3.20
2023-09-06T01:48:13.629Z,3.90
2023-09-06T01:50:15.195Z,3.80
2023-09-06T01:52:12.634Z,3.50
2023-09-06T01:57:07.871Z,4.00
2023-09-06T02:01:02.258Z,4.00
2023-09-06T02:04:51.924Z,4.20
2023-09-06T02:06:50.877Z,4.30
2023-09-06T02:08:52.639Z,4.30
2023-09-06T02:11:30.436Z,4.30
2023-09-06T02:13:27.533Z,4.20
2023-09-06T02:17:44.945Z,4.90
2023-09-06T02:21:25.167Z,4.40
2023-09-06T02:26:21.990Z,4.50
2023-09-06T02:30:46.383Z,4.50
2023-09-06T02:33:29.392Z,4.60
2023-09-06T02:36:54.503Z,5.00
2023-09-06T02:38:29.169Z,4.30
2023-09-06T02:40:00.706Z,4.80
2023-09-06T02:42:06.350Z,4.30
2023-09-06T02:46:12.704Z,4.00
2023-09-06T02:48:17.600Z,4.40
2023-09-06T02:50:20.106Z,4.00
2023-09-06T02:55:01.300Z,4.10
2023-09-06T02:57:29.753Z,4.10
2023-09-06T02:58:58.817Z,4.00
2023-09-06T03:00:29.520Z,4.10
2023-09-06T03:08:09.611Z,3.90
2023-09-06T03:10:58.868Z,3.90
2023-09-06T03:12:28.762Z,4.20
2023-09-06T03:15:22.266Z,3.90
2023-09-06T03:17:18.966Z,4.40
2023-09-06T03:19:12.793Z,4.00
2023-09-06T03:23:17.238Z,4.50
2023-09-06T03:24:47.405Z,4.70
2023-09-06T03:30:06.948Z,5.00
2023-09-06T03:32:05.929Z,4.30
2023-09-06T03:36:01.581Z,5.20
2023-09-06T03:38:01.439Z,4.20
2023-09-06T03:42:15.547Z,4.80
2023-09-06T03:43:46.533Z,4.40
2023-09-06T03:45:46.363Z,4.40
2023-09-06T03:47:53.351Z,4.80
2023-09-06T03:50:10.047Z,4.60
2023-09-06T03:51:41.752Z,4.40
2023-09-06T04:00:09.952Z,4.40
2023-09-06T04:01:41.915Z,4.40
2023-09-06T04:05:21.440Z,4.50
2023-09-06T04:12:16.231Z,4.40
2023-09-06T04:13:45.191Z,4.60
2023-09-06T04:18:02.500Z,4.60
2023-09-06T04:21:02.239Z,4.30
2023-09-06T04:25:28.039Z,4.40
2023-09-06T04:29:22.796Z,4.10
2023-09-06T04:33:26.061Z,5.20
2023-09-06T04:35:45.059Z,4.50
2023-09-06T04:43:22.104Z,5.00
2023-09-06T04:49:02.831Z,4.90
2023-09-06T04:51:53.658Z,5.10
2023-09-06T04:54:41.232Z,4.60
2023-09-06T04:56:40.985Z,4.60
2023-09-06T04:58:42.266Z,4.50
2023-09-06T05:00:08.242Z,4.60
2023-09-06T05:02:56.090Z,4.80
2023-09-06T05:04:26.214Z,4.60
2023-09-06T05:07:24.138Z,4.50
2023-09-06T05:09:43.765Z,4.70
2023-09-06T05:11:13.701Z,4.10
2023-09-06T05:13:34.851Z,4.60
2023-09-06T05:15:02.477Z,4.30
2023-09-06T05:17:03.356Z,4.60
2023-09-06T05:19:03.179Z,4.40
2023-09-06T05:26:23.364Z,4.60
2023-09-06T05:27:53.262Z,4.50
2023-09-06T05:29:41.232Z,4.30
2023-09-06T05:31:10.450Z,4.20
2023-09-06T05:33:09.614Z,4.90
2023-09-06T05:36:05.439Z,4.10
2023-09-06T05:38:25.502Z,3.50
2023-09-06T05:39:54.396Z,4.20
2023-09-06T05:41:24.129Z,4.20
2023-09-06T05:42:53.746Z,4.30
2023-09-06T05:45:13.618Z,3.90
2023-09-06T05:46:43.530Z,4.30
2023-09-06T05:49:03.110Z,3.90
2023-09-06T05:54:53.932Z,3.60
2023-09-06T06:00:58.689Z,3.60
2023-09-06T06:03:29.813Z,3.60
2023-09-06T06:06:29.826Z,3.50
2023-09-06T06:08:30.799Z,4.00
2023-09-06T06:15:15.557Z,3.80
2023-09-06T06:19:54.490Z,3.40
2023-09-06T06:23:24.854Z,3.60
2023-09-06T06:24:22.989Z,4.00
2023-09-06T06:25:22.946Z,3.90
2023-09-06T06:26:22.909Z,3.90
2023-09-06T06:27:52.969Z,3.80
2023-09-06T06:29:53.642Z,3.80
2023-09-06T06:37:22.566Z,3.60
2023-09-06T06:38:51.950Z,3.50
2023-09-06T06:40:21.894Z,3.30
2023-09-06T06:41:51.772Z,3.50
2023-09-06T06:44:19.529Z,3.20
2023-09-06T06:45:20.201Z,3.30
2023-09-06T06:46:40.601Z,3.80
2023-09-06T06:49:18.369Z,3.30
2023-09-06T06:52:55.835Z,3.50
2023-09-06T06:54:27.977Z,3.10
2023-09-06T06:55:25.673Z,3.20
2023-09-06T06:56:25.728Z,3.40
2023-09-06T06:58:20.618Z,3.10
2023-09-06T07:01:11.970Z,2.70
2023-09-06T07:02:42.852Z,3.20
2023-09-06T07:04:09.857Z,3.40
2023-09-06T07:06:40.421Z,3.50
2023-09-06T07:08:59.152Z,2.90
2023-09-06T07:11:50.993Z,2.70
2023-09-06T07:13:25.128Z,2.90
2023-09-06T07:14:53.652Z,2.80
2023-09-06T07:16:51.660Z,2.90
2023-09-06T07:21:23.411Z,2.80
2023-09-06T07:24:29.077Z,2.90
2023-09-06T07:28:04.735Z,2.80
2023-09-06T07:29:54.009Z,2.60
2023-09-06T07:31:23.489Z,2.80
2023-09-06T07:33:24.192Z,2.70
2023-09-06T07:34:53.861Z,2.80
2023-09-06T07:35:54.511Z,2.60
2023-09-06T07:36:53.791Z,2.80
2023-09-06T07:38:42.542Z,2.60
2023-09-06T07:40:14.338Z,3.00
2023-09-06T07:43:48.860Z,2.50
2023-09-06T07:45:20.876Z,2.50
2023-09-06T07:46:50.212Z,2.60
2023-09-06T07:49:40.911Z,2.30
2023-09-06T07:52:00.593Z,2.20
2023-09-06T07:53:31.462Z,2.70
2023-09-06T07:55:30.121Z,2.20
2023-09-06T07:57:00.305Z,2.50
2023-09-06T08:00:33.572Z,3.40
2023-09-06T08:03:48.824Z,1.80
2023-09-06T08:06:52.799Z,2.00
2023-09-06T08:08:48.873Z,2.10
2023-09-06T08:10:57.571Z,2.00
2023-09-06T08:12:28.425Z,2.70
2023-09-06T08:16:15.292Z,2.20
2023-09-06T08:19:24.382Z,2.70
2023-09-06T08:25:47.647Z,2.10
2023-09-06T08:26:46.008Z,2.30
2023-09-06T08:27:45.983Z,2.20
2023-09-06T08:29:14.832Z,1.70
2023-09-06T08:30:48.814Z,2.00
2023-09-06T08:33:47.941Z,2.00
2023-09-06T08:35:18.507Z,2.00
2023-09-06T08:38:33.525Z,2.20
2023-09-06T08:41:10.923Z,1.80
2023-09-06T08:45:36.221Z,2.20
2023-09-06T08:49:03.263Z,2.00
2023-09-06T08:53:06.780Z,2.10
2023-09-06T08:54:27.989Z,1.90
2023-09-06T08:57:36.292Z,2.30
2023-09-06T08:58:36.932Z,1.90
2023-09-06T08:59:36.481Z,2.00
2023-09-06T09:03:51.386Z,2.10
2023-09-06T09:06:11.954Z,2.20
2023-09-06T09:10:30.475Z,2.40
2023-09-06T09:12:00.440Z,2.00
2023-09-06T09:14:19.259Z,2.00
2023-09-06T09:18:07.268Z,2.00
2023-09-06T09:22:58.359Z,2.20
2023-09-06T09:38:54.902Z,1.90
2023-09-06T09:41:59.547Z,2.20
2023-09-06T09:43:45.597Z,2.10
2023-09-06T09:45:17.514Z,2.10
2023-09-06T09:47:31.304Z,2.30
2023-09-06T09:51:03.480Z,2.20
2023-09-06T09:52:30.774Z,2.20
2023-09-06T09:58:36.244Z,2.00
2023-09-06T10:01:33.461Z,2.10
2023-09-06T10:03:04.364Z,1.90
2023-09-06T10:04:34.444Z,1.90
2023-09-06T10:06:34.333Z,2.10
2023-09-06T10:11:59.611Z,2.20
2023-09-06T10:14:18.054Z,2.20
2023-09-06T10:17:09.889Z,2.20
2023-09-06T10:23:46.282Z,2.20
2023-09-06T10:25:35.141Z,1.90
2023-09-06T10:27:26.769Z,2.00
2023-09-06T10:29:58.101Z,2.10
2023-09-06T10:35:06.186Z,2.20
2023-09-06T10:36:37.705Z,2.00
2023-09-06T10:38:33.740Z,1.80
2023-09-06T10:41:14.175Z,1.70
2023-09-06T10:47:24.668Z,1.90
2023-09-06T10:50:55.144Z,2.10
2023-09-06T10:52:44.009Z,1.80
2023-09-06T10:56:29.810Z,1.90
2023-09-06T11:00:29.635Z,2.10
2023-09-06T11:03:17.436Z,2.40
2023-09-06T11:05:18.184Z,1.90
2023-09-06T11:08:54.643Z,1.80
2023-09-06T11:14:00.798Z,1.80
2023-09-06T11:18:43.264Z,1.90
2023-09-06T11:23:11.052Z,1.80
2023-09-06T11:26:25.015Z,1.60
2023-09-06T11:28:31.094Z,1.90
2023-09-06T11:30:06.243Z,1.80
2023-09-06T11:32:52.877Z,1.80
2023-09-06T11:34:44.920Z,1.80
2023-09-06T11:36:45.197Z,2.10
2023-09-06T11:39:03.388Z,1.80
2023-09-06T11:41:01.371Z,1.90
2023-09-06T11:43:21.151Z,2.00
2023-09-06T11:46:09.366Z,1.70
2023-09-06T11:49:02.102Z,1.90
2023-09-06T12:00:03.003Z,1.90
2023-09-06T12:02:54.470Z,1.80
2023-09-06T12:07:45.443Z,1.60
2023-09-06T12:09:19.159Z,2.00
2023-09-06T12:12:44.827Z,1.60
2023-09-06T12:16:16.328Z,1.90
2023-09-06T12:19:02.120Z,2.30
2023-09-06T12:21:22.623Z,1.90
2023-09-06T12:22:51.576Z,1.70
2023-09-06T12:26:07.182Z,2.20
2023-09-06T12:28:38.578Z,2.00
2023-09-06T12:30:38.166Z,1.80
2023-09-06T12:34:39.199Z,1.90
2023-09-06T12:38:49.919Z,1.80
2023-09-06T12:41:43.790Z,1.60
2023-09-06T12:42:50.696Z,1.70
2023-09-06T12:45:23.286Z,2.00
2023-09-06T12:47:54.801Z,1.70
2023-09-06T12:49:25.817Z,1.90
2023-09-06T12:54:08.735Z,1.70
2023-09-06T12:57:46.462Z,1.90
2023-09-06T13:00:35.055Z,1.70
2023-09-06T13:06:12.038Z,1.70
2023-09-06T13:08:02.145Z,2.10
2023-09-06T13:10:04.638Z,3.80
2023-09-06T13:14:09.572Z,2.00
2023-09-06T13:15:40.170Z,2.10
2023-09-06T13:18:00.137Z,1.70
2023-09-06T13:19:38.708Z,1.60
2023-09-06T13:22:24.200Z,1.40
2023-09-06T13:25:04.369Z,1.40
2023-09-06T13:32:23.219Z,2.30
2023-09-06T13:35:11.760Z,1.90
2023-09-06T13:37:50.252Z,2.40
2023-09-06T13:39:20.135Z,1.50
2023-09-06T13:41:38.968Z,1.60
2023-09-06T13:43:57.411Z,1.60
2023-09-06T13:45:59.162Z,1.90
2023-09-06T13:48:00.416Z,1.70
2023-09-06T13:50:17.331Z,1.60
2023-09-06T13:53:09.024Z,1.60
2023-09-06T13:54:40.897Z,1.50
2023-09-06T13:57:07.134Z,1.50
2023-09-06T13:58:36.160Z,1.60
2023-09-06T14:00:42.198Z,1.90
2023-09-06T14:03:09.865Z,1.60
2023-09-06T14:09:19.728Z,1.50
2023-09-06T14:14:04.041Z,2.00
2023-09-06T14:17:15.560Z,1.80
2023-09-06T14:19:36.012Z,1.40
2023-09-06T14:25:45.200Z,1.70
2023-09-06T14:27:16.191Z,1.70
2023-09-06T14:29:16.010Z,1.30
2023-09-06T14:33:34.172Z,1.40
2023-09-06T14:36:08.896Z,1.60
2023-09-06T14:39:16.549Z,1.50
2023-09-06T14:42:58.022Z,1.30
2023-09-06T14:47:06.543Z,1.10
2023-09-06T14:49:27.002Z,1.20
2023-09-06T14:52:13.735Z,1.40
2023-09-06T14:54:11.410Z,1.40
2023-09-06T14:55:41.318Z,1.50
2023-09-06T14:59:31.333Z,1.70
2023-09-06T15:02:17.229Z,1.30
2023-09-06T15:10:49.107Z,1.20
2023-09-06T15:12:20.262Z,1.50
2023-09-06T15:16:38.833Z,1.60
2023-09-06T15:18:27.028Z,1.40
2023-09-06T15:19:56.258Z,1.30
2023-09-06T15:21:56.314Z,1.70
2023-09-06T15:24:16.905Z,1.40
2023-09-06T15:26:17.733Z,1.40
2023-09-06T15:29:29.111Z,1.50
2023-09-06T15:31:26.320Z,1.40
2023-09-06T15:32:56.642Z,1.40
2023-09-06T15:35:30.660Z,1.40
2023-09-06T15:38:49.267Z,1.50
2023-09-06T15:43:14.513Z,2.10
2023-09-06T15:47:18.428Z,2.30
2023-09-06T15:49:16.953Z,1.80
2023-09-06T15:52:12.203Z,1.30
2023-09-06T15:55:02.887Z,1.50
2023-09-06T15:58:00.131Z,2.00
2023-09-06T16:01:49.326Z,1.50
2023-09-06T16:04:27.874Z,2.30
2023-09-06T16:06:57.102Z,1.80
2023-09-06T16:08:26.884Z,1.20
2023-09-06T16:09:56.195Z,1.30
2023-09-06T16:13:12.665Z,1.70
2023-09-06T16:15:15.334Z,1.50
2023-09-06T16:16:42.368Z,1.80
2023-09-06T16:21:27.066Z,1.60
2023-09-06T16:24:16.746Z,1.50
2023-09-06T16:27:13.358Z,1.60
2023-09-06T16:29:32.301Z,1.40
2023-09-06T16:32:40.382Z,1.50
2023-09-06T16:34:13.286Z,2.00
2023-09-06T16:37:58.899Z,1.80
2023-09-06T16:41:14.777Z,1.70
2023-09-06T16:42:43.753Z,1.60
2023-09-06T16:46:33.067Z,1.30
2023-09-06T16:49:31.166Z,1.60
2023-09-06T16:51:28.119Z,1.50
2023-09-06T16:52:57.014Z,1.40
2023-09-06T16:54:28.880Z,1.50
2023-09-06T16:59:30.789Z,1.70
2023-09-06T17:04:51.062Z,1.90
2023-09-06T17:08:19.802Z,1.60
2023-09-06T17:11:42.773Z,1.50
2023-09-06T17:13:11.015Z,2.10
2023-09-06T17:16:02.454Z,1.80
2023-09-06T17:20:44.883Z,1.90
2023-09-06T17:23:07.895Z,1.70
2023-09-06T17:26:58.981Z,1.80
2023-09-06T17:35:00.640Z,2.10
2023-09-06T17:38:21.635Z,2.00
2023-09-06T17:41:02.505Z,2.00
2023-09-06T17:43:05.215Z,2.20
2023-09-06T17:46:26.683Z,3.00
2023-09-06T17:47:56.947Z,4.00
2023-09-06T17:49:53.803Z,5.60
2023-09-06T17:53:18.222Z,7.80
2023-09-06T17:56:17.815Z,10.60
2023-09-06T17:57:45.844Z,11.70
2023-09-06T18:03:40.240Z,10.50
2023-09-06T18:09:51.040Z,4.90
2023-09-06T18:11:22.015Z,4.40
2023-09-06T18:15:46.441Z,3.30
2023-09-06T18:17:17.121Z,2.80
2023-09-06T18:21:28.947Z,2.20
2023-09-06T18:26:19.186Z,2.70
2023-09-06T18:27:49.995Z,2.10
2023-09-06T18:30:46.973Z,2.30
2023-09-06T18:32:17.002Z,2.00
2023-09-06T18:35:13.085Z,2.50
2023-09-06T18:39:26.024Z,2.50
2023-09-06T18:42:17.543Z,2.30
2023-09-06T18:44:49.724Z,2.30
2023-09-06T18:47:52.830Z,2.70
2023-09-06T18:51:11.197Z,2.80
2023-09-06T18:54:44.048Z,2.50
2023-09-06T18:59:57.144Z,2.60
2023-09-06T19:02:28.381Z,3.00
2023-09-06T19:06:01.525Z,2.60
2023-09-06T19:08:59.361Z,2.90
2023-09-06T19:11:03.198Z,2.50
2023-09-06T19:12:32.928Z,2.60
2023-09-06T19:14:04.550Z,2.40
2023-09-06T19:15:34.665Z,2.50
2023-09-06T19:17:09.211Z,2.70
2023-09-06T19:19:36.616Z,2.40
2023-09-06T19:22:41.512Z,2.50
2023-09-06T19:29:58.386Z,2.70
2023-09-06T19:32:58.157Z,2.50
2023-09-06T19:37:18.258Z,2.30
2023-09-06T19:39:19.944Z,2.90
2023-09-06T19:42:08.987Z,2.50
2023-09-06T19:43:41.100Z,2.70
2023-09-06T19:45:10.028Z,3.10
2023-09-06T19:47:09.422Z,3.00
2023-09-06T19:52:25.557Z,2.50
2023-09-06T19:54:27.976Z,2.80
2023-09-06T19:56:53.814Z,3.00
2023-09-06T19:59:41.613Z,2.90
2023-09-06T20:01:13.671Z,3.00
2023-09-06T20:02:40.325Z,3.10
2023-09-06T20:04:38.042Z,3.00
2023-09-06T20:06:09.837Z,2.90
2023-09-06T20:07:36.867Z,2.90
2023-09-06T20:09:08.622Z,2.90
2023-09-06T20:19:01.692Z,2.80
2023-09-06T20:23:17.135Z,2.70
2023-09-06T20:26:05.438Z,2.80
2023-09-06T20:28:07.940Z,3.10
2023-09-06T20:31:36.159Z,2.70
2023-09-06T20:33:53.525Z,3.00
2023-09-06T20:36:52.984Z,2.90
2023-09-06T20:40:04.853Z,3.40
2023-09-06T20:42:22.494Z,2.90
2023-09-06T20:44:13.159Z,3.00
2023-09-06T20:46:12.193Z,2.50
2023-09-06T20:47:22.380Z,2.70
2023-09-06T20:53:27.326Z,2.40
2023-09-06T20:55:27.738Z,3.20
2023-09-06T20:57:55.434Z,2.50
2023-09-06T20:59:25.298Z,2.80
2023-09-06T21:01:25.050Z,3.20
2023-09-06T21:03:36.105Z,2.50
2023-09-06T21:05:16.502Z,2.90
2023-09-06T21:07:04.264Z,3.20
2023-09-06T21:16:37.394Z,2.60
2023-09-06T21:18:14.411Z,3.30
2023-09-06T21:21:32.227Z,3.20
2023-09-06T21:23:53.982Z,3.00
2023-09-06T21:26:40.584Z,2.50
2023-09-06T21:30:40.600Z,3.00
2023-09-06T21:34:15.733Z,2.90
2023-09-06T21:37:18.981Z,3.00
2023-09-06T21:42:46.227Z,2.80
2023-09-06T21:44:15.695Z,2.80
2023-09-06T21:46:15.454Z,2.70
2023-09-06T21:53:30.691Z,2.80
2023-09-06T21:56:36.587Z,3.10
2023-09-06T22:03:03.970Z,2.60
2023-09-06T22:05:06.785Z,2.70
2023-09-06T22:11:18.742Z,3.00
2023-09-06T22:12:54.639Z,2.60
2023-09-06T22:16:31.408Z,2.60
2023-09-06T22:22:43.249Z,2.60
2023-09-06T22:24:12.212Z,3.20
2023-09-06T22:28:21.693Z,3.10
2023-09-06T22:31:30.355Z,2.80
2023-09-06T22:32:59.352Z,3.30
2023-09-06T22:35:52.092Z,3.00
2023-09-06T22:40:40.177Z,3.00
2023-09-06T22:42:10.517Z,2.50
2023-09-06T22:56:17.835Z,3.30
2023-09-06T22:57:47.731Z,2.90
2023-09-06T23:00:05.327Z,2.90
2023-09-06T23:01:35.879Z,3.40
2023-09-06T23:04:23.545Z,3.00
2023-09-06T23:06:12.068Z,2.90
2023-09-06T23:08:42.037Z,2.80
2023-09-06T23:10:12.768Z,2.60
2023-09-06T23:12:30.773Z,2.90
2023-09-06T23:16:28.441Z,2.80
2023-09-06T23:19:24.742Z,3.30
2023-09-06T23:21:44.275Z,3.00
2023-09-06T23:23:13.303Z,3.10
2023-09-06T23:24:42.378Z,2.90
2023-09-06T23:27:13.136Z,3.10
2023-09-06T23:31:13.144Z,3.10
2023-09-06T23:34:02.183Z,3.10
2023-09-06T23:36:30.492Z,3.20
2023-09-06T23:38:00.344Z,3.20
2023-09-06T23:42:04.149Z,3.30
2023-09-06T23:46:12.923Z,2.90
2023-09-06T23:47:43.277Z,3.40
2023-09-06T23:50:41.143Z,3.50
2023-09-06T23:58:15.445Z,3.60
